Time;durP1;ratioP1;P1;durP2;ratioP2;P2;SDS_P1;SDS_P2;PMS_P1;PMS_P2;Temp;Humidity;BMP_temperature;BMP_pressure;BME280_temperature;BME280_humidity;BME280_pressure;Samples;Min_cycle;Max_cycle;Signal;HPM_P1;HPM_P2
2023/10/08 00:00:49;;;;;;;0.08;0.08;;;18.50;50.70;;;;;;5032972;28;20197;-58
2023/10/08 00:03:20;;;;;;;0.10;0.10;;;18.60;50.70;;;;;;5030586;28;20228;-56
2023/10/08 00:05:51;;;;;;;0.10;0.10;;;18.60;50.70;;;;;;5032975;28;20203;-55
2023/10/08 00:08:22;;;;;;;0.10;0.10;;;18.70;50.70;;;;;;5032992;28;20644;-56
2023/10/08 00:10:53;;;;;;;0.00;0.00;;;18.70;50.70;;;;;;5033278;28;20201;-55
2023/10/08 00:13:26;;;;;;;0.03;0.03;;;18.70;50.70;;;;;;5033234;28;20220;-55
2023/10/08 00:15:57;;;;;;;0.05;0.05;;;18.70;50.60;;;;;;5032570;28;20224;-57
2023/10/08 00:18:28;;;;;;;0.00;0.00;;;18.80;50.60;;;;;;5032607;28;20196;-58
2023/10/08 00:21:15;;;;;;;0.00;0.00;;;18.80;50.50;;;;;;5033274;28;20330;-59
2023/10/08 00:23:52;;;;;;;0.00;0.00;;;18.90;50.50;;;;;;5032310;28;20219;-58
2023/10/08 00:26:27;;;;;;;0.00;0.00;;;18.90;50.60;;;;;;5032611;28;20549;-57
2023/10/08 00:29:06;;;;;;;0.10;0.10;;;18.90;50.60;;;;;;5032841;28;20579;-57
2023/10/08 00:31:40;;;;;;;0.00;0.00;;;18.90;50.50;;;;;;5032634;28;20298;-58
2023/10/08 00:34:12;;;;;;;0.08;0.08;;;18.90;50.50;;;;;;5032208;28;20216;-55
2023/10/08 00:36:43;;;;;;;0.10;0.10;;;18.90;50.50;;;;;;5032394;28;20267;-55
2023/10/08 00:39:16;;;;;;;0.10;0.10;;;19.00;50.60;;;;;;5032706;28;20664;-57
2023/10/08 00:41:48;;;;;;;0.08;0.08;;;19.00;50.60;;;;;;5032283;28;20199;-56
2023/10/08 00:44:24;;;;;;;0.10;0.10;;;19.00;50.60;;;;;;5032240;28;20684;-54
2023/10/08 00:46:55;;;;;;;0.00;0.00;;;19.00;50.50;;;;;;5032107;28;20204;-58
2023/10/08 00:49:35;;;;;;;0.10;0.10;;;19.10;50.50;;;;;;5032131;28;20279;-57
2023/10/08 00:52:26;;;;;;;0.10;0.10;;;19.00;50.40;;;;;;5032112;28;20203;-53
2023/10/08 00:55:09;;;;;;;0.05;0.05;;;19.10;50.40;;;;;;5032174;28;20307;-53
2023/10/08 00:57:42;;;;;;;0.10;0.10;;;19.10;50.40;;;;;;5032479;28;20220;-58
2023/10/08 01:00:21;;;;;;;0.00;0.00;;;19.20;50.40;;;;;;5032635;28;20196;-52
2023/10/08 01:03:00;;;;;;;0.10;0.10;;;19.20;50.40;;;;;;5032299;28;20888;-55
2023/10/08 01:05:42;;;;;;;0.00;0.00;;;19.20;50.40;;;;;;5031998;28;20664;-55
2023/10/08 01:08:22;;;;;;;0.10;0.10;;;19.20;50.40;;;;;;5031530;28;20192;-57
2023/10/08 01:11:00;;;;;;;0.10;0.10;;;19.20;50.40;;;;;;5032671;28;20188;-47
2023/10/08 01:13:44;;;;;;;0.10;0.10;;;19.30;50.50;;;;;;5032209;28;20219;-56
2023/10/08 01:16:18;;;;;;;0.10;0.10;;;19.30;50.40;;;;;;5031599;28;20231;-54
2023/10/08 01:18:50;;;;;;;0.10;0.10;;;19.30;50.30;;;;;;5031757;28;20557;-58
2023/10/08 01:21:34;;;;;;;0.00;0.00;;;19.30;50.30;;;;;;5032115;28;20204;-52
2023/10/08 01:24:07;;;;;;;0.00;0.00;;;19.30;50.30;;;;;;5032039;28;20582;-52
2023/10/08 01:26:39;;;;;;;0.08;0.08;;;19.40;50.30;;;;;;5031896;28;20675;-57
2023/10/08 01:29:19;;;;;;;0.10;0.10;;;19.40;50.30;;;;;;5032080;28;20250;-56
2023/10/08 01:31:53;;;;;;;0.00;0.00;;;19.50;50.40;;;;;;5031550;28;20292;-54
2023/10/08 01:34:27;;;;;;;0.00;0.00;;;19.50;50.30;;;;;;5031793;28;20223;-57
2023/10/08 01:37:04;;;;;;;0.00;0.00;;;19.50;50.30;;;;;;5031546;28;20306;-52
2023/10/08 01:39:37;;;;;;;0.00;0.00;;;19.50;50.20;;;;;;5031058;28;20188;-55
2023/10/08 01:42:15;;;;;;;0.00;0.00;;;19.60;50.20;;;;;;5031402;28;20227;-54
2023/10/08 01:44:47;;;;;;;0.10;0.10;;;19.60;50.20;;;;;;5031440;28;20212;-52
2023/10/08 01:47:18;;;;;;;0.00;0.00;;;19.60;50.10;;;;;;5031133;28;20204;-56
2023/10/08 01:49:49;;;;;;;0.10;0.10;;;19.60;50.20;;;;;;5030332;28;20285;-58
2023/10/08 01:52:21;;;;;;;0.10;0.10;;;19.70;50.40;;;;;;5007718;28;20274;-56
2023/10/08 01:54:55;;;;;;;0.05;0.05;;;19.70;50.40;;;;;;5033373;28;20212;-52
2023/10/08 01:57:25;;;;;;;0.10;0.10;;;19.70;50.30;;;;;;5030544;28;20231;-53
2023/10/08 01:59:56;;;;;;;0.00;0.00;;;19.80;50.30;;;;;;5030628;28;20211;-52
2023/10/08 02:02:27;;;;;;;0.10;0.10;;;19.80;50.30;;;;;;5029157;28;20188;-56
2023/10/08 02:04:57;;;;;;;0.00;0.00;;;19.80;50.20;;;;;;5028732;28;20699;-56
2023/10/08 02:07:28;;;;;;;0.10;0.10;;;19.80;50.20;;;;;;5014537;28;20275;-57
2023/10/08 02:10:01;;;;;;;0.00;0.00;;;19.90;50.30;;;;;;5030476;28;20283;-51
2023/10/08 02:12:31;;;;;;;0.00;0.00;;;19.90;50.20;;;;;;5029713;28;20192;-58
2023/10/08 02:15:02;;;;;;;0.05;0.05;;;19.90;50.10;;;;;;5011205;28;20231;-57
2023/10/08 02:17:33;;;;;;;0.00;0.00;;;20.00;50.10;;;;;;5024370;28;20227;-57
2023/10/08 02:20:05;;;;;;;0.10;0.10;;;20.00;50.00;;;;;;5023424;28;20192;-55
2023/10/08 02:22:36;;;;;;;0.10;0.10;;;20.00;49.90;;;;;;5015680;28;20207;-54
2023/10/08 02:25:11;;;;;;;0.10;0.10;;;20.00;49.80;;;;;;5031031;28;20218;-57
2023/10/08 02:27:42;;;;;;;0.10;0.10;;;20.00;49.80;;;;;;5042896;28;20215;-53
2023/10/08 02:30:13;;;;;;;0.00;0.00;;;20.00;49.90;;;;;;5031956;28;20195;-48
2023/10/08 02:32:44;;;;;;;0.10;0.10;;;20.10;49.90;;;;;;5043027;28;20643;-57
2023/10/08 02:35:14;;;;;;;0.00;0.00;;;20.10;49.80;;;;;;5012947;28;20638;-55
2023/10/08 02:37:45;;;;;;;0.00;0.00;;;20.20;49.90;;;;;;5015921;28;20224;-54
2023/10/08 02:40:25;;;;;;;0.10;0.10;;;20.20;49.80;;;;;;5028571;28;20727;-53
2023/10/08 02:42:58;;;;;;;0.00;0.00;;;20.20;49.80;;;;;;5035145;28;20192;-52
2023/10/08 02:45:30;;;;;;;0.05;0.05;;;20.20;49.70;;;;;;5031605;28;20279;-55
2023/10/08 02:48:00;;;;;;;0.10;0.10;;;20.30;49.80;;;;;;5031622;28;20593;-58
2023/10/08 02:50:32;;;;;;;0.00;0.00;;;20.30;49.60;;;;;;5045825;28;20218;-56
2023/10/08 02:53:09;;;;;;;0.00;0.00;;;20.30;49.40;;;;;;5038832;28;20221;-57
2023/10/08 02:55:44;;;;;;;0.00;0.00;;;20.30;49.20;;;;;;5047102;28;20195;-57
2023/10/08 02:58:15;;;;;;;0.10;0.10;;;20.30;49.10;;;;;;5031986;28;20247;-56
2023/10/08 03:00:46;;;;;;;0.10;0.10;;;20.30;49.10;;;;;;5031375;28;20200;-58
2023/10/08 03:03:18;;;;;;;0.10;0.10;;;20.30;49.10;;;;;;5041940;28;20212;-55
2023/10/08 03:05:49;;;;;;;0.00;0.00;;;20.40;49.10;;;;;;5033009;28;20199;-58
2023/10/08 03:08:21;;;;;;;0.10;0.10;;;20.40;49.10;;;;;;5043713;28;20200;-56
2023/10/08 03:10:55;;;;;;;0.00;0.00;;;20.50;49.20;;;;;;5033431;28;20566;-58
2023/10/08 03:13:26;;;;;;;0.00;0.00;;;20.50;49.20;;;;;;5032369;28;20727;-57
2023/10/08 03:16:08;;;;;;;0.10;0.10;;;20.50;49.20;;;;;;5026602;28;20204;-52
2023/10/08 03:18:42;;;;;;;0.10;0.10;;;20.60;49.20;;;;;;5033499;28;20290;-53
2023/10/08 03:23:59;;;;;;;0.10;0.10;;;20.60;49.20;;;;;;5023037;28;20216;-56
2023/10/08 03:26:35;;;;;;;0.10;0.10;;;20.70;49.10;;;;;;5033543;28;20234;-51
2023/10/08 03:29:11;;;;;;;0.10;0.10;;;20.70;49.00;;;;;;5029557;28;20679;-58
2023/10/08 03:31:49;;;;;;;0.10;0.10;;;20.70;49.10;;;;;;5032452;28;20604;-55
2023/10/08 03:34:27;;;;;;;0.03;0.03;;;20.70;49.00;;;;;;5033316;28;20218;-56
2023/10/08 03:37:05;;;;;;;0.03;0.03;;;20.80;49.00;;;;;;5032229;28;20218;-58
2023/10/08 03:42:33;;;;;;;0.00;0.00;;;20.80;48.90;;;;;;5028966;28;20189;-55
2023/10/08 03:45:11;;;;;;;0.00;0.00;;;20.90;48.90;;;;;;5020895;28;20216;-56
2023/10/08 03:47:52;;;;;;;0.08;0.08;;;20.90;48.80;;;;;;5032566;28;20266;-53
2023/10/08 03:50:32;;;;;;;0.00;0.00;;;20.90;48.70;;;;;;5032206;28;20203;-56
2023/10/08 03:53:03;;;;;;;0.10;0.10;;;20.90;48.70;;;;;;5035035;28;20199;-49
2023/10/08 03:55:35;;;;;;;0.08;0.08;;;21.00;48.80;;;;;;5028977;28;20252;-47
2023/10/08 03:58:11;;;;;;;0.10;0.10;;;21.00;48.70;;;;;;5035872;28;20747;-58
2023/10/08 04:00:45;;;;;;;0.10;0.10;;;21.00;48.60;;;;;;5051542;28;20288;-56
2023/10/08 04:03:23;;;;;;;0.10;0.10;;;21.00;48.50;;;;;;5034339;28;20196;-55
2023/10/08 04:06:14;;;;;;;0.10;0.10;;;21.10;48.40;;;;;;5032689;28;20196;-51
2023/10/08 04:08:58;;;;;;;0.00;0.00;;;21.10;48.50;;;;;;5026183;28;20209;-56
2023/10/08 04:11:32;;;;;;;0.05;0.05;;;21.10;48.50;;;;;;5012855;28;20606;-51
2023/10/08 04:14:04;;;;;;;0.10;0.10;;;21.20;48.50;;;;;;5023053;28;20294;-52
2023/10/08 04:16:37;;;;;;;0.10;0.10;;;21.20;48.40;;;;;;5031180;28;20251;-52
2023/10/08 04:19:07;;;;;;;0.10;0.10;;;21.20;48.40;;;;;;5031292;28;20199;-55
2023/10/08 04:21:41;;;;;;;0.10;0.10;;;21.20;48.30;;;;;;5033235;28;20200;-54
2023/10/08 04:24:14;;;;;;;0.00;0.00;;;21.20;48.30;;;;;;5029155;28;20223;-56
2023/10/08 04:26:45;;;;;;;0.10;0.10;;;21.20;48.20;;;;;;5032511;28;20210;-53
2023/10/08 04:29:22;;;;;;;0.10;0.10;;;21.30;48.90;;;;;;5031579;28;20198;-58
2023/10/08 04:32:01;;;;;;;0.00;0.00;;;21.30;48.30;;;;;;5031668;28;20198;-54
2023/10/08 04:34:33;;;;;;;0.00;0.00;;;21.30;48.20;;;;;;5031537;28;20280;-53
2023/10/08 04:37:04;;;;;;;0.00;0.00;;;21.40;48.20;;;;;;5028459;28;20217;-51
2023/10/08 04:39:35;;;;;;;0.03;0.03;;;21.40;48.20;;;;;;5025281;28;20193;-57
2023/10/08 04:42:10;;;;;;;0.10;0.10;;;21.40;48.10;;;;;;5031646;28;20243;-51
2023/10/08 04:44:43;;;;;;;0.10;0.10;;;21.40;48.10;;;;;;5032129;28;20212;-54
2023/10/08 04:47:31;;;;;;;0.10;0.10;;;21.40;48.00;;;;;;5032110;28;20573;-55
2023/10/08 04:50:04;;;;;;;0.00;0.00;;;21.40;47.90;;;;;;5031303;28;20192;-57
2023/10/08 04:52:45;;;;;;;0.10;0.10;;;21.50;47.80;;;;;;5012441;28;20201;-52
2023/10/08 04:55:20;;;;;;;0.10;0.10;;;21.50;47.70;;;;;;5030311;28;20575;-54
2023/10/08 04:57:52;;;;;;;0.10;0.10;;;21.50;47.80;;;;;;5031541;28;20763;-57
2023/10/08 05:00:44;;;;;;;0.10;0.10;;;21.50;47.80;;;;;;5028412;28;20679;-54
2023/10/08 05:03:16;;;;;;;0.10;0.10;;;21.60;47.90;;;;;;5030964;28;20203;-49
2023/10/08 05:08:47;;;;;;;0.05;0.05;;;21.60;47.80;;;;;;5011418;28;20203;-57
2023/10/08 05:11:25;;;;;;;0.00;0.00;;;21.60;47.90;;;;;;5031180;28;20287;-55
2023/10/08 05:14:05;;;;;;;0.05;0.05;;;21.60;47.90;;;;;;5029982;28;20227;-53
2023/10/08 05:16:43;;;;;;;0.00;0.00;;;21.60;47.80;;;;;;5025559;28;20204;-54
2023/10/08 05:19:47;;;;;;;0.00;0.00;;;21.60;47.80;;;;;;5019520;28;20195;-54
2023/10/08 05:22:43;;;;;;;0.05;0.05;;;21.60;47.90;;;;;;5030882;28;20585;-54
2023/10/08 05:25:24;;;;;;;0.00;0.00;;;21.60;47.70;;;;;;5030389;28;20208;-56
2023/10/08 05:27:57;;;;;;;0.10;0.10;;;21.60;47.60;;;;;;5030996;28;20277;-55
2023/10/08 05:30:38;;;;;;;0.00;0.00;;;21.60;47.30;;;;;;5020221;28;20188;-54
2023/10/08 05:33:25;;;;;;;0.10;0.10;;;21.60;47.10;;;;;;5031474;28;20241;-53
2023/10/08 05:36:10;;;;;;;0.00;0.00;;;21.60;47.10;;;;;;5050575;28;20578;-57
2023/10/08 05:38:48;;;;;;;0.10;0.10;;;21.50;46.90;;;;;;5050246;28;20230;-55
2023/10/08 05:41:38;;;;;;;0.00;0.00;;;21.60;47.00;;;;;;5049437;28;20205;-57
2023/10/08 05:44:38;;;;;;;0.10;0.10;;;21.60;47.00;;;;;;5024489;28;20308;-51
2023/10/08 05:47:28;;;;;;;0.00;0.00;;;21.50;46.90;;;;;;5030843;28;20294;-55
2023/10/08 05:53:01;;;;;;;0.10;0.10;;;21.50;47.00;;;;;;5017919;28;20287;-54
2023/10/08 05:55:35;;;;;;;0.08;0.08;;;21.50;47.00;;;;;;5031070;28;20192;-51
2023/10/08 05:58:24;;;;;;;0.10;0.10;;;21.40;47.10;;;;;;5028264;28;20683;-57
2023/10/08 06:01:08;;;;;;;0.10;0.10;;;21.50;47.20;;;;;;5030335;28;20192;-56
2023/10/08 06:03:48;;;;;;;0.10;0.10;;;21.50;47.20;;;;;;5031240;28;20735;-54
2023/10/08 06:09:35;;;;;;;0.10;0.10;;;21.40;47.00;;;;;;5025882;28;20188;-54
2023/10/08 06:12:10;;;;;;;0.10;0.10;;;21.40;46.90;;;;;;5010424;28;20201;-55
2023/10/08 06:18:04;;;;;;;0.10;0.10;;;21.40;46.90;;;;;;4973066;28;20229;-48
2023/10/08 06:20:42;;;;;;;0.10;0.10;;;21.40;46.90;;;;;;5032532;28;20246;-50
2023/10/08 06:23:18;;;;;;;0.08;0.08;;;21.40;46.80;;;;;;5026742;28;20197;-53
2023/10/08 06:25:54;;;;;;;0.10;0.10;;;21.40;46.80;;;;;;5032293;28;20192;-55
2023/10/08 06:28:25;;;;;;;0.00;0.00;;;21.30;46.80;;;;;;5034298;28;20192;-52
2023/10/08 06:30:56;;;;;;;0.10;0.10;;;21.30;46.80;;;;;;5034380;28;20650;-57
2023/10/08 06:33:30;;;;;;;0.10;0.10;;;21.40;46.90;;;;;;5034049;28;20238;-57
2023/10/08 06:36:13;;;;;;;0.08;0.08;;;21.30;46.90;;;;;;5029083;28;20657;-53
2023/10/08 06:38:48;;;;;;;0.10;0.10;;;21.30;46.90;;;;;;5013868;28;20229;-51
2023/10/08 06:41:19;;;;;;;0.00;0.00;;;21.30;46.90;;;;;;5014293;28;20537;-56
2023/10/08 06:44:02;;;;;;;0.10;0.10;;;21.30;46.90;;;;;;5030151;28;20248;-51
2023/10/08 06:46:34;;;;;;;0.10;0.10;;;21.30;46.90;;;;;;5034100;28;20656;-53
2023/10/08 06:49:11;;;;;;;0.10;0.10;;;21.30;46.90;;;;;;5034399;28;20196;-48
2023/10/08 06:51:43;;;;;;;0.10;0.10;;;21.30;46.90;;;;;;5034477;28;20232;-51
2023/10/08 06:54:17;;;;;;;0.10;0.10;;;21.30;46.90;;;;;;5034176;28;20208;-54
2023/10/08 06:56:51;;;;;;;0.10;0.10;;;21.20;46.80;;;;;;5034693;28;20199;-54
2023/10/08 06:59:23;;;;;;;0.00;0.00;;;21.20;46.80;;;;;;5033816;28;20223;-55
2023/10/08 07:01:54;;;;;;;0.03;0.03;;;21.20;46.80;;;;;;5034476;28;20196;-49
2023/10/08 07:04:24;;;;;;;0.08;0.08;;;21.20;46.80;;;;;;5034157;28;20219;-57
2023/10/08 07:06:55;;;;;;;0.00;0.00;;;21.20;46.80;;;;;;5034785;28;20262;-46
2023/10/08 07:09:31;;;;;;;0.03;0.03;;;21.10;46.70;;;;;;5034288;28;20208;-54
2023/10/08 07:12:05;;;;;;;0.10;0.10;;;21.10;46.70;;;;;;5034285;28;20770;-56
2023/10/08 07:14:36;;;;;;;0.10;0.10;;;21.10;46.80;;;;;;5033464;28;20317;-56
2023/10/08 07:17:08;;;;;;;0.10;0.10;;;21.10;46.80;;;;;;5034257;28;20675;-54
2023/10/08 07:19:40;;;;;;;0.00;0.00;;;21.00;46.70;;;;;;5033580;28;20247;-55
2023/10/08 07:22:22;;;;;;;0.10;0.10;;;21.00;46.80;;;;;;5034311;28;20258;-56
2023/10/08 07:24:54;;;;;;;0.10;0.10;;;21.00;46.80;;;;;;5033087;28;20251;-52
2023/10/08 07:27:31;;;;;;;0.10;0.10;;;21.00;46.80;;;;;;5033478;28;20232;-55
2023/10/08 07:30:10;;;;;;;0.00;0.00;;;20.90;46.70;;;;;;5033114;28;20200;-57
2023/10/08 07:32:40;;;;;;;0.10;0.10;;;21.00;46.80;;;;;;5033640;28;20204;-55
2023/10/08 07:35:24;;;;;;;0.00;0.00;;;20.90;46.70;;;;;;5033142;28;20269;-53
2023/10/08 07:37:56;;;;;;;0.10;0.10;;;20.90;46.70;;;;;;5033604;28;20256;-56
2023/10/08 07:40:33;;;;;;;0.10;0.10;;;20.90;46.70;;;;;;5033930;28;20189;-55
2023/10/08 07:43:08;;;;;;;0.10;0.10;;;20.80;46.60;;;;;;5033658;28;20196;-51
2023/10/08 07:45:38;;;;;;;0.08;0.08;;;20.80;46.60;;;;;;5033911;28;20227;-54
2023/10/08 07:48:09;;;;;;;0.10;0.10;;;20.80;46.60;;;;;;5033408;28;20331;-52
2023/10/08 07:50:45;;;;;;;0.03;0.03;;;20.70;46.60;;;;;;5033529;28;20200;-52
2023/10/08 07:53:19;;;;;;;0.00;0.00;;;20.70;46.60;;;;;;5033206;28;20318;-51
2023/10/08 07:55:52;;;;;;;0.00;0.00;;;20.70;46.60;;;;;;5032402;28;20239;-56
2023/10/08 07:58:23;;;;;;;0.08;0.08;;;20.70;46.60;;;;;;5031977;28;20255;-52
2023/10/08 08:00:56;;;;;;;0.10;0.10;;;20.70;46.60;;;;;;5032554;28;20187;-55
2023/10/08 08:03:27;;;;;;;0.10;0.10;;;20.60;46.60;;;;;;5029358;28;20212;-51
2023/10/08 08:05:58;;;;;;;0.08;0.08;;;20.60;46.60;;;;;;5032251;28;20188;-52
2023/10/08 08:08:30;;;;;;;0.00;0.00;;;20.60;46.70;;;;;;5032543;28;20284;-48
2023/10/08 08:11:11;;;;;;;0.10;0.10;;;20.50;46.70;;;;;;5033210;28;20196;-57
2023/10/08 08:13:43;;;;;;;0.10;0.10;;;20.50;46.70;;;;;;5031620;28;20679;-53
2023/10/08 08:16:21;;;;;;;0.10;0.10;;;20.50;46.60;;;;;;5021289;28;20243;-50
2023/10/08 08:18:56;;;;;;;0.08;0.08;;;20.50;46.70;;;;;;5031632;28;20235;-53
2023/10/08 08:21:30;;;;;;;0.10;0.10;;;20.40;46.60;;;;;;5033312;28;20199;-56
2023/10/08 08:24:05;;;;;;;0.10;0.10;;;20.40;46.60;;;;;;5032021;28;20239;-54
2023/10/08 08:27:00;;;;;;;0.10;0.10;;;20.40;46.60;;;;;;5032750;28;20206;-56
2023/10/08 08:29:36;;;;;;;0.10;0.10;;;20.40;46.60;;;;;;5012762;28;20204;-50
2023/10/08 08:32:08;;;;;;;0.10;0.10;;;20.40;46.60;;;;;;5026500;28;20672;-54
2023/10/08 08:34:41;;;;;;;0.03;0.03;;;20.30;46.50;;;;;;5031759;28;20220;-51
2023/10/08 08:37:12;;;;;;;0.10;0.10;;;20.30;46.60;;;;;;5030832;28;20223;-49
2023/10/08 08:39:43;;;;;;;0.10;0.10;;;20.30;46.60;;;;;;5027745;28;20580;-55
2023/10/08 08:42:18;;;;;;;0.10;0.10;;;20.30;46.60;;;;;;5025858;28;20215;-51
2023/10/08 08:44:50;;;;;;;0.10;0.10;;;20.20;46.60;;;;;;5032464;28;20215;-57
2023/10/08 08:47:24;;;;;;;0.10;0.10;;;20.20;46.60;;;;;;5031852;28;20188;-57
2023/10/08 08:49:57;;;;;;;0.00;0.00;;;20.20;46.60;;;;;;5011638;28;20268;-56
2023/10/08 08:52:28;;;;;;;0.10;0.10;;;20.10;46.60;;;;;;5028089;28;20250;-56
2023/10/08 08:54:58;;;;;;;0.10;0.10;;;20.10;46.60;;;;;;5028348;28;20220;-57
2023/10/08 08:57:31;;;;;;;0.10;0.10;;;20.10;46.60;;;;;;5031723;28;20188;-53
2023/10/08 09:00:08;;;;;;;0.00;0.00;;;20.10;46.60;;;;;;5031754;28;20306;-55
2023/10/08 09:02:39;;;;;;;0.10;0.10;;;20.10;46.60;;;;;;5031885;28;20207;-56
2023/10/08 09:05:24;;;;;;;0.10;0.10;;;20.00;46.60;;;;;;5031495;28;20944;-49
2023/10/08 09:08:02;;;;;;;0.10;0.10;;;20.00;46.60;;;;;;5015288;28;20620;-53
2023/10/08 09:10:37;;;;;;;0.10;0.10;;;20.00;46.60;;;;;;5011437;28;20626;-52
2023/10/08 09:13:11;;;;;;;0.10;0.10;;;20.00;46.60;;;;;;5011891;28;20290;-50
2023/10/08 09:15:42;;;;;;;0.10;0.10;;;19.90;46.60;;;;;;5011537;28;20262;-50
2023/10/08 09:18:14;;;;;;;0.10;0.10;;;19.90;46.60;;;;;;5030823;28;20366;-52
2023/10/08 09:20:47;;;;;;;0.00;0.00;;;19.90;46.60;;;;;;5024746;28;20203;-53
2023/10/08 09:23:21;;;;;;;0.10;0.10;;;19.80;46.60;;;;;;5011083;28;20397;-43
2023/10/08 09:26:02;;;;;;;0.10;0.10;;;19.80;46.60;;;;;;5011981;28;20250;-54
2023/10/08 09:28:38;;;;;;;0.10;0.10;;;19.80;46.60;;;;;;5031511;28;20223;-54
2023/10/08 09:31:12;;;;;;;0.10;0.10;;;19.80;46.60;;;;;;5031770;28;20535;-43
2023/10/08 09:33:43;;;;;;;0.10;0.10;;;19.70;46.60;;;;;;5031785;28;20230;-47
2023/10/08 09:36:18;;;;;;;0.10;0.10;;;19.70;46.60;;;;;;5031343;28;20196;-55
2023/10/08 09:38:50;;;;;;;0.10;0.10;;;19.70;46.60;;;;;;5030662;28;20546;-49
2023/10/08 09:41:23;;;;;;;0.10;0.10;;;19.70;46.60;;;;;;5030939;28;20206;-54
2023/10/08 09:43:57;;;;;;;0.20;0.20;;;19.70;46.70;;;;;;5028494;28;20223;-55
2023/10/08 09:46:33;;;;;;;0.10;0.10;;;19.60;46.60;;;;;;5031529;28;20573;-56
2023/10/08 09:49:07;;;;;;;0.10;0.10;;;19.60;46.60;;;;;;5029997;28;20584;-55
2023/10/08 09:51:43;;;;;;;0.03;0.03;;;19.60;46.60;;;;;;5031039;28;20304;-51
2023/10/08 09:54:20;;;;;;;0.10;0.10;;;19.50;46.60;;;;;;5030872;28;20219;-52
2023/10/08 09:56:52;;;;;;;0.03;0.03;;;19.50;46.60;;;;;;5031502;28;20530;-54
2023/10/08 09:59:26;;;;;;;0.10;0.10;;;19.50;46.60;;;;;;5031599;28;20581;-52
2023/10/08 10:02:00;;;;;;;0.10;0.10;;;19.50;46.70;;;;;;5031203;28;20542;-46
2023/10/08 10:04:34;;;;;;;0.10;0.10;;;19.50;46.70;;;;;;5030313;28;20560;-51
2023/10/08 10:07:14;;;;;;;0.10;0.10;;;19.40;46.60;;;;;;5029088;28;20591;-55
2023/10/08 10:09:48;;;;;;;0.10;0.10;;;19.40;46.70;;;;;;5028665;28;20555;-57
2023/10/08 10:12:25;;;;;;;0.10;0.10;;;19.40;46.80;;;;;;5028315;28;20538;-52
2023/10/08 10:15:00;;;;;;;0.10;0.10;;;19.40;46.70;;;;;;5030852;28;20365;-56
2023/10/08 10:17:32;;;;;;;0.10;0.10;;;19.30;47.30;;;;;;5030449;28;20638;-57
2023/10/08 10:20:10;;;;;;;0.05;0.05;;;19.30;46.80;;;;;;5028341;28;20242;-54
2023/10/08 10:22:43;;;;;;;0.10;0.10;;;19.30;46.80;;;;;;5028407;28;20601;-56
2023/10/08 10:25:19;;;;;;;0.10;0.10;;;19.30;46.80;;;;;;5030162;28;20204;-53
2023/10/08 10:28:21;;;;;;;0.00;0.00;;;19.30;46.80;;;;;;5029441;28;20238;-50
2023/10/08 10:30:55;;;;;;;0.10;0.10;;;19.20;46.80;;;;;;5022990;28;20237;-45
2023/10/08 10:33:33;;;;;;;0.10;0.10;;;19.20;46.70;;;;;;5028857;28;20270;-48
2023/10/08 10:36:08;;;;;;;0.10;0.10;;;19.20;46.80;;;;;;5027963;28;20203;-49
2023/10/08 10:38:42;;;;;;;0.10;0.10;;;19.10;46.80;;;;;;5030280;28;20732;-51
2023/10/08 10:41:15;;;;;;;0.10;0.10;;;19.10;46.80;;;;;;5030653;28;20509;-55
2023/10/08 10:43:52;;;;;;;0.10;0.10;;;19.10;46.80;;;;;;5028397;28;20611;-47
2023/10/08 10:46:31;;;;;;;0.15;0.15;;;19.10;46.90;;;;;;5029940;28;20188;-53
2023/10/08 10:49:18;;;;;;;0.00;0.00;;;19.10;46.90;;;;;;5031229;28;20217;-49
2023/10/08 10:51:52;;;;;;;0.20;0.20;;;19.00;46.80;;;;;;5030886;28;20551;-56
2023/10/08 10:54:24;;;;;;;0.10;0.10;;;19.00;46.80;;;;;;5030730;28;20293;-53
2023/10/08 10:57:05;;;;;;;0.10;0.10;;;19.00;46.80;;;;;;5031278;28;20188;-56
2023/10/08 10:59:39;;;;;;;0.00;0.00;;;18.90;46.80;;;;;;5031249;28;20270;-56
2023/10/08 11:02:20;;;;;;;0.20;0.20;;;18.90;46.90;;;;;;5033921;28;20222;-53
2023/10/08 11:04:52;;;;;;;0.00;0.00;;;18.90;46.90;;;;;;5033545;28;20774;-57
2023/10/08 11:07:25;;;;;;;0.10;0.10;;;18.80;46.80;;;;;;5034018;28;20192;-56
2023/10/08 11:09:58;;;;;;;0.10;0.10;;;18.90;46.90;;;;;;5034417;28;20553;-57
2023/10/08 11:12:42;;;;;;;0.10;0.10;;;18.90;46.90;;;;;;5034436;28;20596;-55
2023/10/08 11:15:15;;;;;;;0.10;0.10;;;18.80;46.90;;;;;;5034161;28;20792;-54
2023/10/08 11:17:49;;;;;;;0.00;0.00;;;18.80;46.90;;;;;;5034190;28;20330;-56
2023/10/08 11:20:32;;;;;;;0.10;0.10;;;18.80;46.90;;;;;;5033666;28;20336;-58
2023/10/08 11:23:17;;;;;;;0.10;0.10;;;18.70;46.90;;;;;;5034381;28;20533;-58
2023/10/08 11:25:59;;;;;;;0.10;0.10;;;18.70;46.90;;;;;;5033965;28;20545;-55
2023/10/08 11:28:33;;;;;;;0.10;0.10;;;18.70;46.90;;;;;;5034205;28;20589;-56
2023/10/08 11:31:10;;;;;;;0.10;0.10;;;18.70;46.90;;;;;;5033961;28;20596;-55
2023/10/08 11:33:53;;;;;;;0.10;0.10;;;18.70;46.90;;;;;;5034026;28;20338;-55
2023/10/08 11:36:28;;;;;;;0.10;0.10;;;18.60;46.90;;;;;;5034196;28;20243;-56
2023/10/08 11:39:06;;;;;;;0.10;0.10;;;18.60;46.90;;;;;;5033697;28;20290;-54
2023/10/08 11:41:49;;;;;;;0.10;0.10;;;18.60;46.90;;;;;;5034058;28;20192;-54
2023/10/08 11:44:23;;;;;;;0.10;0.10;;;18.50;46.90;;;;;;5033596;28;20235;-56
2023/10/08 11:47:00;;;;;;;0.00;0.00;;;18.50;47.00;;;;;;5033948;28;20200;-57
2023/10/08 11:49:36;;;;;;;0.00;0.00;;;18.60;47.10;;;;;;5033455;28;20674;-53
2023/10/08 11:52:11;;;;;;;0.00;0.00;;;18.50;47.00;;;;;;5033118;28;20196;-57
2023/10/08 11:54:44;;;;;;;0.03;0.03;;;18.50;47.00;;;;;;5033118;28;20216;-55
2023/10/08 11:57:19;;;;;;;0.08;0.08;;;18.50;47.00;;;;;;5033554;28;20549;-50
2023/10/08 11:59:52;;;;;;;0.10;0.10;;;18.50;47.00;;;;;;5033063;28;20263;-53
2023/10/08 12:02:23;;;;;;;0.10;0.10;;;18.40;47.00;;;;;;5032862;28;20575;-52
2023/10/08 12:04:57;;;;;;;0.10;0.10;;;18.40;47.00;;;;;;5032363;28;20568;-52
2023/10/08 12:07:29;;;;;;;0.03;0.03;;;18.40;47.00;;;;;;5032767;28;20218;-53
2023/10/08 12:10:00;;;;;;;0.10;0.10;;;18.40;47.00;;;;;;5032992;28;20641;-50
2023/10/08 12:12:32;;;;;;;0.05;0.05;;;18.40;47.00;;;;;;5031914;28;20544;-50
2023/10/08 12:15:03;;;;;;;0.10;0.10;;;18.30;47.00;;;;;;5032382;28;20307;-47
2023/10/08 12:17:39;;;;;;;0.20;0.20;;;18.30;47.00;;;;;;5032867;28;20525;-52
2023/10/08 12:20:25;;;;;;;0.10;0.10;;;18.30;47.00;;;;;;5032919;28;20564;-54
2023/10/08 12:22:59;;;;;;;0.10;0.10;;;18.30;47.60;;;;;;5033040;28;20266;-55
2023/10/08 12:25:32;;;;;;;0.10;0.10;;;18.30;47.00;;;;;;5032655;28;20231;-55
2023/10/08 12:28:04;;;;;;;0.08;0.08;;;18.20;47.00;;;;;;5032505;28;20290;-57
2023/10/08 12:30:41;;;;;;;0.13;0.13;;;18.30;47.10;;;;;;5032660;28;20583;-48
2023/10/08 12:33:15;;;;;;;0.10;0.10;;;18.20;47.00;;;;;;5031708;28;20550;-57
2023/10/08 12:35:49;;;;;;;0.10;0.10;;;18.20;47.00;;;;;;5032922;28;20192;-58
2023/10/08 12:38:22;;;;;;;0.00;0.00;;;18.10;47.00;;;;;;5032500;28;20196;-51
2023/10/08 12:40:54;;;;;;;0.08;0.08;;;18.10;47.00;;;;;;5032077;28;20637;-54
2023/10/08 12:43:27;;;;;;;0.10;0.10;;;18.10;47.00;;;;;;5032523;28;20543;-56
2023/10/08 12:46:02;;;;;;;0.00;0.00;;;18.10;47.00;;;;;;5032530;28;20561;-57
2023/10/08 12:48:33;;;;;;;0.10;0.10;;;18.10;47.00;;;;;;5032979;28;20218;-50
2023/10/08 12:51:07;;;;;;;0.10;0.10;;;18.10;47.00;;;;;;5032480;28;20619;-58
2023/10/08 12:53:50;;;;;;;0.05;0.05;;;18.00;47.00;;;;;;5032170;28;20313;-56
2023/10/08 12:56:31;;;;;;;0.10;0.10;;;18.00;47.10;;;;;;5032261;28;20192;-51
2023/10/08 12:59:06;;;;;;;0.10;0.10;;;18.00;47.00;;;;;;5032365;28;20293;-55
2023/10/08 13:01:41;;;;;;;0.00;0.00;;;18.00;47.00;;;;;;5032479;28;20192;-46
2023/10/08 13:04:15;;;;;;;0.10;0.10;;;17.90;47.00;;;;;;5032284;28;20725;-53
2023/10/08 13:06:50;;;;;;;0.05;0.05;;;17.90;47.00;;;;;;5032212;28;20274;-50
2023/10/08 13:09:22;;;;;;;0.10;0.10;;;17.90;47.10;;;;;;5031778;28;20587;-50
2023/10/08 13:11:54;;;;;;;0.20;0.20;;;17.90;47.10;;;;;;5031613;28;20289;-48
2023/10/08 13:14:25;;;;;;;0.10;0.10;;;17.90;47.10;;;;;;5032130;28;20270;-48
2023/10/08 13:16:56;;;;;;;0.10;0.10;;;17.80;47.10;;;;;;5032072;28;20550;-49
2023/10/08 13:19:29;;;;;;;0.10;0.10;;;17.90;47.10;;;;;;5031895;28;20220;-51
2023/10/08 13:22:06;;;;;;;0.10;0.10;;;17.80;47.10;;;;;;5031984;28;20658;-54
2023/10/08 13:24:39;;;;;;;0.10;0.10;;;17.80;47.10;;;;;;5031693;28;20263;-51
2023/10/08 13:27:10;;;;;;;0.05;0.05;;;17.80;47.00;;;;;;5032222;28;20592;-55
2023/10/08 13:29:41;;;;;;;0.10;0.10;;;17.80;47.10;;;;;;5031816;28;20239;-52
2023/10/08 13:32:17;;;;;;;0.10;0.10;;;17.80;47.10;;;;;;5031562;28;20599;-52
2023/10/08 13:34:48;;;;;;;0.10;0.10;;;17.70;47.00;;;;;;5032134;28;20528;-52
2023/10/08 13:37:21;;;;;;;0.10;0.10;;;17.70;47.10;;;;;;5031711;28;20188;-48
2023/10/08 13:39:53;;;;;;;0.00;0.00;;;17.70;47.10;;;;;;5031470;28;20260;-48
2023/10/08 13:42:26;;;;;;;0.10;0.10;;;17.70;47.10;;;;;;5031469;28;20207;-56
2023/10/08 13:45:07;;;;;;;0.10;0.10;;;17.70;47.70;;;;;;5031620;28;20287;-52
2023/10/08 13:47:39;;;;;;;0.10;0.10;;;17.60;47.10;;;;;;5031513;28;20271;-50